Time;durP1;ratioP1;P1;durP2;ratioP2;P2;SDS_P1;SDS_P2;PMS_P1;PMS_P2;Temp;Humidity;BMP_temperature;BMP_pressure;BME280_temperature;BME280_humidity;BME280_pressure;Samples;Min_cycle;Max_cycle;Signal;HPM_P1;HPM_P2
2024/01/13 00:02:12;;;;;;;169.13;55.70;;;;;;;;;;4985301;28;20041;-71
2024/01/13 00:04:38;;;;;;;171.60;55.35;;;;;;;;;;4986775;28;20033;-73
2024/01/13 00:07:03;;;;;;;163.35;55.55;;;;;;;;;;4985486;28;20053;-73
2024/01/13 00:09:28;;;;;;;160.27;53.72;;;;;;;;;;4984721;28;20463;-72
2024/01/13 00:11:54;;;;;;;188.88;55.38;;;;;;;;;;4985961;28;20030;-73
2024/01/13 00:14:19;;;;;;;170.23;54.73;;;;;;;;;;4968373;28;20112;-73
2024/01/13 00:16:44;;;;;;;176.55;56.38;;;;;;;;;;4966689;28;20319;-71
2024/01/13 00:19:09;;;;;;;171.20;56.03;;;;;;;;;;4987209;28;20037;-73
2024/01/13 00:21:35;;;;;;;176.77;53.80;;;;;;;;;;4988185;28;20275;-73
2024/01/13 00:24:00;;;;;;;174.95;54.13;;;;;;;;;;4986804;28;20283;-70
2024/01/13 00:26:25;;;;;;;171.20;52.47;;;;;;;;;;4984174;28;20061;-72
2024/01/13 00:28:51;;;;;;;182.82;54.58;;;;;;;;;;4968670;28;20046;-71
2024/01/13 00:31:16;;;;;;;182.02;54.83;;;;;;;;;;4986676;28;20026;-72
2024/01/13 00:33:43;;;;;;;172.17;51.50;;;;;;;;;;4986793;28;20041;-71
2024/01/13 00:36:09;;;;;;;199.73;55.08;;;;;;;;;;4988154;28;20299;-72
2024/01/13 00:38:34;;;;;;;160.68;50.10;;;;;;;;;;4987563;28;20036;-72
2024/01/13 00:41:00;;;;;;;168.60;51.60;;;;;;;;;;4987298;28;20109;-71
2024/01/13 00:43:25;;;;;;;158.05;47.95;;;;;;;;;;4988102;28;20049;-72
2024/01/13 00:45:51;;;;;;;159.23;50.23;;;;;;;;;;4986893;28;20113;-71
2024/01/13 00:48:16;;;;;;;154.18;48.97;;;;;;;;;;4968981;28;20294;-72
2024/01/13 00:50:41;;;;;;;148.65;47.17;;;;;;;;;;4986459;28;20405;-72
2024/01/13 00:53:06;;;;;;;160.02;49.72;;;;;;;;;;4987249;28;20057;-72
2024/01/13 00:55:32;;;;;;;158.70;48.22;;;;;;;;;;4984728;28;20026;-72
2024/01/13 00:57:57;;;;;;;155.27;48.10;;;;;;;;;;4986380;28;20033;-73
2024/01/13 01:00:22;;;;;;;151.13;46.55;;;;;;;;;;4969174;28;20418;-73
2024/01/13 01:02:48;;;;;;;139.88;44.33;;;;;;;;;;4973937;28;20117;-72
2024/01/13 01:05:13;;;;;;;142.48;46.92;;;;;;;;;;4989250;28;20022;-73
2024/01/13 01:07:38;;;;;;;150.48;48.28;;;;;;;;;;4990306;28;20029;-72
2024/01/13 01:10:04;;;;;;;143.95;46.35;;;;;;;;;;4990124;28;20030;-72
2024/01/13 01:12:29;;;;;;;138.05;46.22;;;;;;;;;;4989614;28;20029;-71
2024/01/13 01:14:54;;;;;;;149.43;46.67;;;;;;;;;;4989605;28;20157;-73
2024/01/13 01:17:20;;;;;;;142.30;47.63;;;;;;;;;;4990222;28;20280;-71
2024/01/13 01:19:45;;;;;;;142.98;45.50;;;;;;;;;;4989833;28;20586;-71
2024/01/13 01:22:10;;;;;;;132.32;45.13;;;;;;;;;;4989287;28;20041;-70
2024/01/13 01:24:35;;;;;;;133.75;45.50;;;;;;;;;;4971017;28;20042;-71
2024/01/13 01:27:01;;;;;;;135.10;43.75;;;;;;;;;;4990245;28;20061;-72
2024/01/13 01:29:26;;;;;;;145.40;46.40;;;;;;;;;;4985967;28;20085;-72
2024/01/13 01:31:51;;;;;;;131.17;45.23;;;;;;;;;;4990436;28;20276;-71
2024/01/13 01:34:16;;;;;;;134.47;44.67;;;;;;;;;;4989264;28;20941;-71
2024/01/13 01:36:42;;;;;;;128.60;44.27;;;;;;;;;;4990721;28;20280;-72
2024/01/13 01:39:09;;;;;;;133.35;44.08;;;;;;;;;;4971278;28;20275;-72
2024/01/13 01:41:35;;;;;;;132.98;45.60;;;;;;;;;;4972107;28;20049;-71
2024/01/13 01:44:00;;;;;;;137.85;45.35;;;;;;;;;;4988231;28;20039;-72
2024/01/13 01:46:25;;;;;;;138.00;45.75;;;;;;;;;;4990737;28;20487;-71
2024/01/13 01:48:55;;;;;;;129.55;43.28;;;;;;;;;;4987343;28;20042;-71
2024/01/13 01:51:21;;;;;;;136.68;44.63;;;;;;;;;;4989877;28;20030;-71
2024/01/13 01:53:46;;;;;;;121.63;44.53;;;;;;;;;;4989715;28;20045;-72
2024/01/13 01:56:14;;;;;;;119.10;43.00;;;;;;;;;;4990269;28;20034;-72
2024/01/13 01:58:39;;;;;;;125.15;43.58;;;;;;;;;;4987423;28;20031;-71
2024/01/13 02:01:05;;;;;;;126.53;43.22;;;;;;;;;;4989775;28;20057;-72
2024/01/13 02:03:31;;;;;;;126.30;44.08;;;;;;;;;;4969093;28;20133;-72
2024/01/13 02:05:58;;;;;;;124.15;43.78;;;;;;;;;;4989511;28;20042;-72
2024/01/13 02:08:23;;;;;;;121.90;44.63;;;;;;;;;;4988112;28;20165;-71
2024/01/13 02:10:49;;;;;;;123.45;42.80;;;;;;;;;;4990160;28;20117;-72
2024/01/13 02:13:14;;;;;;;118.28;42.88;;;;;;;;;;4986378;28;20113;-71
2024/01/13 02:15:40;;;;;;;123.68;43.15;;;;;;;;;;4988224;28;20441;-72
2024/01/13 02:18:05;;;;;;;117.63;43.72;;;;;;;;;;4988363;28;20018;-70
2024/01/13 02:20:30;;;;;;;125.38;43.00;;;;;;;;;;4989421;28;20381;-72
2024/01/13 02:22:56;;;;;;;114.73;41.77;;;;;;;;;;4969779;28;20432;-72
2024/01/13 02:25:21;;;;;;;117.05;42.03;;;;;;;;;;4988762;28;20280;-71
2024/01/13 02:27:47;;;;;;;120.65;43.42;;;;;;;;;;4985939;28;20417;-72
2024/01/13 02:30:12;;;;;;;122.87;42.23;;;;;;;;;;4989221;28;20030;-72
2024/01/13 02:32:37;;;;;;;116.38;42.15;;;;;;;;;;4990198;28;20277;-71
2024/01/13 02:35:03;;;;;;;113.72;41.65;;;;;;;;;;4987478;28;20060;-72
2024/01/13 02:37:28;;;;;;;116.68;42.83;;;;;;;;;;4987646;28;20039;-72
2024/01/13 02:39:54;;;;;;;114.38;42.50;;;;;;;;;;4986166;28;20410;-71
2024/01/13 02:42:19;;;;;;;121.05;42.40;;;;;;;;;;4986892;28;20030;-72
2024/01/13 02:44:44;;;;;;;120.15;43.30;;;;;;;;;;4988481;28;20041;-72
2024/01/13 02:47:10;;;;;;;115.50;43.23;;;;;;;;;;4986096;28;20036;-71
2024/01/13 02:49:35;;;;;;;115.72;42.80;;;;;;;;;;4989068;28;20292;-72
2024/01/13 02:52:00;;;;;;;113.27;43.47;;;;;;;;;;4984529;28;20479;-71
2024/01/13 02:54:25;;;;;;;130.85;45.10;;;;;;;;;;4988528;28;20339;-72
2024/01/13 02:56:51;;;;;;;122.03;44.30;;;;;;;;;;4966393;28;20026;-71
2024/01/13 02:59:16;;;;;;;115.93;43.47;;;;;;;;;;4985805;28;20030;-70
2024/01/13 03:01:41;;;;;;;114.10;42.60;;;;;;;;;;4987996;28;20285;-71
2024/01/13 03:04:07;;;;;;;121.60;43.10;;;;;;;;;;4985486;28;20299;-72
2024/01/13 03:06:32;;;;;;;126.72;47.42;;;;;;;;;;4969808;28;20513;-72
2024/01/13 03:08:57;;;;;;;200.20;61.35;;;;;;;;;;4985489;28;20682;-71
2024/01/13 03:11:23;;;;;;;144.25;48.78;;;;;;;;;;4986188;28;20053;-72
2024/01/13 03:13:48;;;;;;;135.07;48.13;;;;;;;;;;4986608;28;20053;-72
2024/01/13 03:16:14;;;;;;;122.60;45.97;;;;;;;;;;4990557;28;20026;-72
2024/01/13 03:18:39;;;;;;;124.53;45.55;;;;;;;;;;4987972;28;20043;-72
2024/01/13 03:21:05;;;;;;;127.40;47.72;;;;;;;;;;4988707;28;20037;-71
2024/01/13 03:23:30;;;;;;;129.75;47.85;;;;;;;;;;4984819;28;20113;-70
2024/01/13 03:25:55;;;;;;;128.98;46.90;;;;;;;;;;4987763;28;20030;-72
2024/01/13 03:28:21;;;;;;;124.32;45.72;;;;;;;;;;4983788;28;20601;-72
2024/01/13 03:30:48;;;;;;;127.78;45.70;;;;;;;;;;4986209;28;20417;-71
2024/01/13 03:33:14;;;;;;;122.07;46.63;;;;;;;;;;4987227;28;20036;-72
2024/01/13 03:35:39;;;;;;;128.88;45.97;;;;;;;;;;4984703;28;20022;-71
2024/01/13 03:38:05;;;;;;;125.95;45.50;;;;;;;;;;4986606;28;20037;-73
2024/01/13 03:40:30;;;;;;;121.90;46.27;;;;;;;;;;4985523;28;20034;-72
2024/01/13 03:42:55;;;;;;;121.47;44.60;;;;;;;;;;4986048;28;20646;-72
2024/01/13 03:45:20;;;;;;;121.60;46.50;;;;;;;;;;4983114;28;20027;-71
2024/01/13 03:47:46;;;;;;;121.87;45.43;;;;;;;;;;4989069;28;20271;-69
2024/01/13 03:50:11;;;;;;;117.53;46.85;;;;;;;;;;4970171;28;20350;-72
2024/01/13 03:52:36;;;;;;;120.47;45.00;;;;;;;;;;4969444;28;20038;-70
2024/01/13 03:55:02;;;;;;;120.82;45.05;;;;;;;;;;4983951;28;20054;-72
2024/01/13 03:57:27;;;;;;;121.57;45.45;;;;;;;;;;4987656;28;20026;-71
2024/01/13 03:59:52;;;;;;;121.43;44.57;;;;;;;;;;4965960;28;20040;-72
2024/01/13 04:02:17;;;;;;;121.53;45.67;;;;;;;;;;4984761;28;20275;-70
2024/01/13 04:04:43;;;;;;;121.82;43.85;;;;;;;;;;4968532;28;20905;-72
2024/01/13 04:07:08;;;;;;;122.77;45.67;;;;;;;;;;4968451;28;20030;-71
2024/01/13 04:09:34;;;;;;;119.53;45.03;;;;;;;;;;4986238;28;20323;-71
2024/01/13 04:11:59;;;;;;;115.38;44.20;;;;;;;;;;4987305;28;20288;-72
2024/01/13 04:14:24;;;;;;;118.95;45.33;;;;;;;;;;4985862;28;20109;-71
2024/01/13 04:16:49;;;;;;;113.85;43.10;;;;;;;;;;4987348;28;20081;-71
2024/01/13 04:19:15;;;;;;;121.17;43.10;;;;;;;;;;4986082;28;20399;-72
2024/01/13 04:21:41;;;;;;;111.97;43.47;;;;;;;;;;4970548;28;20275;-70
2024/01/13 04:24:06;;;;;;;115.50;44.15;;;;;;;;;;4985217;28;20121;-71
2024/01/13 04:26:31;;;;;;;110.70;41.30;;;;;;;;;;4968560;28;20057;-72
2024/01/13 04:28:57;;;;;;;107.00;41.28;;;;;;;;;;4986355;28;20515;-71
2024/01/13 04:31:22;;;;;;;105.60;41.50;;;;;;;;;;4987563;28;20026;-71
2024/01/13 04:33:47;;;;;;;110.50;42.97;;;;;;;;;;4983979;28;20025;-72
2024/01/13 04:36:13;;;;;;;109.35;43.05;;;;;;;;;;4987348;28;20089;-72
2024/01/13 04:38:38;;;;;;;110.95;43.25;;;;;;;;;;4990840;28;20693;-71
2024/01/13 04:41:03;;;;;;;110.50;40.67;;;;;;;;;;4989489;28;20014;-72
2024/01/13 04:43:29;;;;;;;107.88;41.85;;;;;;;;;;4990159;28;20492;-72
2024/01/13 04:45:54;;;;;;;108.50;41.00;;;;;;;;;;4988596;28;20477;-70
2024/01/13 04:48:20;;;;;;;111.40;42.22;;;;;;;;;;4991090;28;20041;-71
2024/01/13 04:50:45;;;;;;;106.72;40.47;;;;;;;;;;4986991;28;20603;-71
2024/01/13 04:53:10;;;;;;;110.00;40.50;;;;;;;;;;4990163;28;20425;-71
2024/01/13 04:55:36;;;;;;;111.60;42.35;;;;;;;;;;4989844;28;20431;-72
2024/01/13 04:58:01;;;;;;;114.70;40.50;;;;;;;;;;4988629;28;20157;-72
2024/01/13 05:00:27;;;;;;;115.87;41.17;;;;;;;;;;4990227;28;20030;-72
2024/01/13 05:02:52;;;;;;;103.70;39.38;;;;;;;;;;4988401;28;20350;-72
2024/01/13 05:05:18;;;;;;;103.03;40.63;;;;;;;;;;4990647;28;20477;-71
2024/01/13 05:07:43;;;;;;;107.32;40.22;;;;;;;;;;4989801;28;20275;-72
2024/01/13 05:10:08;;;;;;;111.43;40.73;;;;;;;;;;4988360;28;20497;-71
2024/01/13 05:12:34;;;;;;;113.65;40.80;;;;;;;;;;4989042;28;20272;-71
2024/01/13 05:14:59;;;;;;;107.85;41.08;;;;;;;;;;4989236;28;20408;-71
2024/01/13 05:17:24;;;;;;;110.65;41.17;;;;;;;;;;4973265;28;20507;-72
2024/01/13 05:19:49;;;;;;;110.47;39.90;;;;;;;;;;4990630;28;20154;-72
2024/01/13 05:22:15;;;;;;;109.87;40.70;;;;;;;;;;4989449;28;20026;-72
2024/01/13 05:24:40;;;;;;;111.43;43.03;;;;;;;;;;4990228;28;20365;-72
2024/01/13 05:27:05;;;;;;;110.30;41.95;;;;;;;;;;4989511;28;20738;-72
2024/01/13 05:29:31;;;;;;;115.38;40.97;;;;;;;;;;4990724;28;20034;-71
2024/01/13 05:31:56;;;;;;;106.57;41.00;;;;;;;;;;4970252;28;20527;-72
2024/01/13 05:34:21;;;;;;;104.68;40.90;;;;;;;;;;4988974;28;20044;-71
2024/01/13 05:36:47;;;;;;;104.50;39.43;;;;;;;;;;4990474;28;20030;-70
2024/01/13 05:39:13;;;;;;;112.07;41.42;;;;;;;;;;4989207;28;20299;-72
2024/01/13 05:41:38;;;;;;;113.13;41.38;;;;;;;;;;4990066;28;20519;-72
2024/01/13 05:44:04;;;;;;;106.90;40.25;;;;;;;;;;4987306;28;21016;-72
2024/01/13 05:46:29;;;;;;;103.40;39.70;;;;;;;;;;4987149;28;20037;-72
2024/01/13 05:48:54;;;;;;;98.60;38.27;;;;;;;;;;4985148;28;20049;-67
2024/01/13 05:51:20;;;;;;;104.30;39.00;;;;;;;;;;4989798;28;20936;-67
2024/01/13 05:53:46;;;;;;;94.28;36.47;;;;;;;;;;4989169;28;20057;-67
2024/01/13 05:56:11;;;;;;;97.32;36.70;;;;;;;;;;4988757;28;20532;-68
2024/01/13 05:58:37;;;;;;;91.25;35.80;;;;;;;;;;4968854;28;20027;-68
2024/01/13 06:01:02;;;;;;;99.53;36.80;;;;;;;;;;4988944;28;20045;-67
2024/01/13 06:03:28;;;;;;;96.65;36.67;;;;;;;;;;4987543;28;20370;-67
2024/01/13 06:05:53;;;;;;;98.63;37.85;;;;;;;;;;4989520;28;20523;-68
2024/01/13 06:08:19;;;;;;;88.93;34.33;;;;;;;;;;4988619;28;20037;-65
2024/01/13 06:10:44;;;;;;;96.90;35.45;;;;;;;;;;4989872;28;20046;-69
2024/01/13 06:13:10;;;;;;;102.13;36.90;;;;;;;;;;4983926;28;20138;-67
2024/01/13 06:15:35;;;;;;;106.13;39.53;;;;;;;;;;4971830;28;20033;-68
2024/01/13 06:18:01;;;;;;;94.05;35.35;;;;;;;;;;4987812;28;20519;-67
2024/01/13 06:20:26;;;;;;;94.03;34.72;;;;;;;;;;4987939;28;20030;-67
2024/01/13 06:22:51;;;;;;;88.70;34.30;;;;;;;;;;4986960;28;20105;-68
2024/01/13 06:25:17;;;;;;;90.20;34.17;;;;;;;;;;4972897;28;20512;-69
2024/01/13 06:27:42;;;;;;;83.93;32.65;;;;;;;;;;4982901;28;20150;-68
2024/01/13 06:30:10;;;;;;;79.65;32.47;;;;;;;;;;4985462;28;20053;-69
2024/01/13 06:32:36;;;;;;;83.75;33.05;;;;;;;;;;4985746;28;20085;-68
2024/01/13 06:35:01;;;;;;;89.97;32.47;;;;;;;;;;4989277;28;20490;-68
2024/01/13 06:37:26;;;;;;;83.13;32.33;;;;;;;;;;4983309;28;20030;-68
2024/01/13 06:39:51;;;;;;;85.35;32.25;;;;;;;;;;4968079;28;20026;-65
2024/01/13 06:42:17;;;;;;;69.13;29.05;;;;;;;;;;4983181;28;20593;-68
2024/01/13 06:44:42;;;;;;;77.97;30.85;;;;;;;;;;4989384;28;20042;-68
2024/01/13 06:47:07;;;;;;;74.20;29.35;;;;;;;;;;4987205;28;20026;-65
2024/01/13 06:49:33;;;;;;;72.28;27.95;;;;;;;;;;4972174;28;20042;-67
2024/01/13 06:51:59;;;;;;;68.05;28.38;;;;;;;;;;4966371;28;20129;-68
2024/01/13 06:54:24;;;;;;;72.97;29.15;;;;;;;;;;4986513;28;20034;-67
2024/01/13 06:56:50;;;;;;;85.60;31.52;;;;;;;;;;4983919;28;20165;-68
2024/01/13 06:59:15;;;;;;;94.22;34.08;;;;;;;;;;4977314;28;20092;-68
2024/01/13 07:01:40;;;;;;;129.53;41.80;;;;;;;;;;4966964;28;20527;-68
2024/01/13 07:04:06;;;;;;;87.83;31.37;;;;;;;;;;4984425;28;20288;-68
2024/01/13 07:06:31;;;;;;;78.63;32.27;;;;;;;;;;4986502;28;20271;-66
2024/01/13 07:08:57;;;;;;;88.30;31.80;;;;;;;;;;4988209;28;20279;-68
2024/01/13 07:11:22;;;;;;;72.35;29.02;;;;;;;;;;4986659;28;20084;-68
2024/01/13 07:13:48;;;;;;;74.25;28.65;;;;;;;;;;4983865;28;20030;-69
2024/01/13 07:16:13;;;;;;;70.40;27.30;;;;;;;;;;4982563;28;20091;-68
2024/01/13 07:18:39;;;;;;;74.70;27.27;;;;;;;;;;4985939;28;20283;-68
2024/01/13 07:21:05;;;;;;;65.18;26.27;;;;;;;;;;4987864;28;20028;-68
2024/01/13 07:23:31;;;;;;;58.78;23.63;;;;;;;;;;4986932;28;20056;-68
2024/01/13 07:25:56;;;;;;;63.08;22.67;;;;;;;;;;4984146;28;20070;-68
2024/01/13 07:28:22;;;;;;;54.60;22.67;;;;;;;;;;4986347;28;20061;-68
2024/01/13 07:30:47;;;;;;;50.25;22.08;;;;;;;;;;4984376;28;20037;-67
2024/01/13 07:33:13;;;;;;;54.13;21.75;;;;;;;;;;4984375;28;20046;-68
2024/01/13 07:35:38;;;;;;;53.00;21.58;;;;;;;;;;4981437;28;20034;-67
2024/01/13 07:38:03;;;;;;;53.45;20.75;;;;;;;;;;4985640;28;20045;-68
2024/01/13 07:40:29;;;;;;;52.03;20.58;;;;;;;;;;4987230;28;20404;-68
2024/01/13 07:42:54;;;;;;;53.72;20.80;;;;;;;;;;4982870;28;20069;-68
2024/01/13 07:45:19;;;;;;;62.45;22.20;;;;;;;;;;4986681;28;20209;-68
2024/01/13 07:47:46;;;;;;;53.03;20.52;;;;;;;;;;4985720;28;20057;-67
2024/01/13 07:50:11;;;;;;;57.20;22.65;;;;;;;;;;4984501;28;20137;-69
2024/01/13 07:52:36;;;;;;;50.92;21.70;;;;;;;;;;4984497;28;20038;-67
2024/01/13 07:55:02;;;;;;;54.45;22.10;;;;;;;;;;4984328;28;20450;-68
2024/01/13 07:57:29;;;;;;;58.63;22.90;;;;;;;;;;4983042;28;20120;-67
2024/01/13 07:59:54;;;;;;;66.57;31.50;;;;;;;;;;4987722;28;20105;-69
2024/01/13 08:02:19;;;;;;;53.40;22.80;;;;;;;;;;4984278;28;20109;-68
2024/01/13 08:04:45;;;;;;;46.93;19.93;;;;;;;;;;4983211;28;20121;-67
2024/01/13 08:07:10;;;;;;;54.38;23.13;;;;;;;;;;4981316;28;20284;-68
2024/01/13 08:09:35;;;;;;;57.80;22.17;;;;;;;;;;4967039;28;20030;-69
2024/01/13 08:12:00;;;;;;;49.83;21.13;;;;;;;;;;4968108;28;20284;-69
2024/01/13 08:14:26;;;;;;;51.78;20.55;;;;;;;;;;4969796;28;20049;-68
2024/01/13 08:16:51;;;;;;;49.33;20.13;;;;;;;;;;4983461;28;20455;-67
2024/01/13 08:19:16;;;;;;;47.30;19.58;;;;;;;;;;4986614;28;20287;-69
2024/01/13 08:21:42;;;;;;;50.45;20.35;;;;;;;;;;4987466;28;20053;-66
2024/01/13 08:24:08;;;;;;;53.65;20.50;;;;;;;;;;4983351;28;20018;-68
2024/01/13 08:26:33;;;;;;;46.63;19.30;;;;;;;;;;4982812;28;20061;-69
2024/01/13 08:28:59;;;;;;;52.13;20.38;;;;;;;;;;4986400;28;20026;-70
2024/01/13 08:31:24;;;;;;;52.20;19.50;;;;;;;;;;4981003;28;20030;-65
2024/01/13 08:33:50;;;;;;;54.67;21.38;;;;;;;;;;4984325;28;20033;-64
2024/01/13 08:36:17;;;;;;;52.35;20.63;;;;;;;;;;4985785;28;20034;-67
2024/01/13 08:38:46;;;;;;;54.45;19.70;;;;;;;;;;4962977;28;20035;-67
2024/01/13 08:41:12;;;;;;;56.20;21.02;;;;;;;;;;4983922;28;20030;-71
2024/01/13 08:43:37;;;;;;;61.53;22.63;;;;;;;;;;4968145;28;20044;-69
2024/01/13 08:46:03;;;;;;;80.22;26.17;;;;;;;;;;4984240;28;20030;-69
2024/01/13 08:48:28;;;;;;;60.28;23.42;;;;;;;;;;4969037;28;20081;-67
2024/01/13 08:50:53;;;;;;;109.00;31.15;;;;;;;;;;4967207;28;20149;-69
2024/01/13 08:53:19;;;;;;;77.88;27.60;;;;;;;;;;4985638;28;20026;-69
2024/01/13 08:55:45;;;;;;;58.60;22.75;;;;;;;;;;4985807;28;20026;-67
2024/01/13 08:58:12;;;;;;;63.85;24.35;;;;;;;;;;4968104;28;20543;-69
2024/01/13 09:00:37;;;;;;;107.28;33.90;;;;;;;;;;4970509;28;20380;-67
2024/01/13 09:03:02;;;;;;;80.72;29.27;;;;;;;;;;4986769;28;20034;-68
2024/01/13 09:05:28;;;;;;;72.20;25.67;;;;;;;;;;4987285;28;20022;-70
2024/01/13 09:07:54;;;;;;;53.00;21.63;;;;;;;;;;4985951;28;20037;-70
2024/01/13 09:10:19;;;;;;;57.83;23.05;;;;;;;;;;4970531;28;20061;-72
2024/01/13 09:12:45;;;;;;;63.58;26.27;;;;;;;;;;4986565;28;20062;-72
2024/01/13 09:15:11;;;;;;;61.88;24.13;;;;;;;;;;4968940;28;20396;-72
2024/01/13 09:17:37;;;;;;;70.18;28.33;;;;;;;;;;4985142;28;20027;-72
2024/01/13 09:20:03;;;;;;;71.13;30.08;;;;;;;;;;4988167;28;20037;-71
2024/01/13 09:22:28;;;;;;;79.82;36.10;;;;;;;;;;4987701;28;20034;-70
2024/01/13 09:24:54;;;;;;;70.43;27.95;;;;;;;;;;4987759;28;20092;-70
2024/01/13 09:27:19;;;;;;;66.38;27.70;;;;;;;;;;4971600;28;20054;-72
2024/01/13 09:29:45;;;;;;;66.70;27.08;;;;;;;;;;4991788;28;20370;-72
2024/01/13 09:32:12;;;;;;;66.85;25.85;;;;;;;;;;4989437;28;20026;-71
2024/01/13 09:34:37;;;;;;;59.95;24.88;;;;;;;;;;4989781;28;20027;-71
2024/01/13 09:37:03;;;;;;;62.80;25.23;;;;;;;;;;4989391;28;20093;-71
2024/01/13 09:39:28;;;;;;;71.45;27.20;;;;;;;;;;4990260;28;20371;-71
2024/01/13 09:41:54;;;;;;;66.53;25.33;;;;;;;;;;4986292;28;20499;-71
2024/01/13 09:44:26;;;;;;;62.25;24.27;;;;;;;;;;4987935;28;20292;-71
2024/01/13 09:46:52;;;;;;;56.25;23.13;;;;;;;;;;4989385;28;20045;-70
2024/01/13 09:49:18;;;;;;;60.05;24.45;;;;;;;;;;4972276;28;20040;-73
2024/01/13 09:51:44;;;;;;;71.03;26.13;;;;;;;;;;4978017;28;20062;-70
2024/01/13 09:54:11;;;;;;;64.70;25.25;;;;;;;;;;4988244;28;20054;-71
2024/01/13 09:56:42;;;;;;;66.25;26.85;;;;;;;;;;4986365;28;20492;-71
2024/01/13 09:59:08;;;;;;;67.03;25.88;;;;;;;;;;4985550;28;20030;-70
2024/01/13 10:01:33;;;;;;;75.25;26.50;;;;;;;;;;4988485;28;20106;-71
2024/01/13 10:03:58;;;;;;;54.88;22.85;;;;;;;;;;4990337;28;20391;-70
2024/01/13 10:06:24;;;;;;;65.88;24.73;;;;;;;;;;4986907;28;20037;-71
2024/01/13 10:08:49;;;;;;;65.15;23.40;;;;;;;;;;4985789;28;20493;-71
2024/01/13 10:11:14;;;;;;;58.35;23.65;;;;;;;;;;4986762;28;20034;-71
2024/01/13 10:13:41;;;;;;;65.93;24.27;;;;;;;;;;4973820;28;20062;-70
2024/01/13 10:16:06;;;;;;;58.72;24.10;;;;;;;;;;4971521;28;20275;-71
2024/01/13 10:18:32;;;;;;;60.72;24.13;;;;;;;;;;4986886;28;20034;-70
2024/01/13 10:20:57;;;;;;;71.97;25.30;;;;;;;;;;4969271;28;20481;-71
2024/01/13 10:23:22;;;;;;;73.30;25.13;;;;;;;;;;4986591;28;20524;-70
2024/01/13 10:25:48;;;;;;;55.00;23.27;;;;;;;;;;4985796;28;20089;-70
2024/01/13 10:28:14;;;;;;;56.97;24.10;;;;;;;;;;4984886;28;20054;-71
2024/01/13 10:30:40;;;;;;;64.65;24.33;;;;;;;;;;4986492;28;20037;-70
2024/01/13 10:33:06;;;;;;;58.17;24.52;;;;;;;;;;4968583;28;20030;-71
2024/01/13 10:35:31;;;;;;;63.88;24.92;;;;;;;;;;4982380;28;20018;-70
2024/01/13 10:38:00;;;;;;;63.70;24.73;;;;;;;;;;4988328;28;20045;-71
2024/01/13 10:40:26;;;;;;;53.90;22.50;;;;;;;;;;4971100;28;20026;-71
2024/01/13 10:42:53;;;;;;;59.97;23.40;;;;;;;;;;4987757;28;20271;-70
2024/01/13 10:45:21;;;;;;;58.92;24.70;;;;;;;;;;4986460;28;20034;-70
2024/01/13 10:47:51;;;;;;;65.20;24.80;;;;;;;;;;4990011;28;20171;-71
2024/01/13 10:50:16;;;;;;;60.78;24.80;;;;;;;;;;4969822;28;20077;-69
2024/01/13 10:52:41;;;;;;;60.13;22.35;;;;;;;;;;4987453;28;20467;-70
2024/01/13 10:55:07;;;;;;;57.53;23.03;;;;;;;;;;4984596;28;20022;-70
2024/01/13 10:57:33;;;;;;;65.53;24.08;;;;;;;;;;4982615;28;20492;-71
2024/01/13 10:59:59;;;;;;;53.65;21.75;;;;;;;;;;4971547;28;20026;-71
2024/01/13 11:02:25;;;;;;;54.75;22.25;;;;;;;;;;4971612;28;20499;-70
2024/01/13 11:04:51;;;;;;;50.50;21.75;;;;;;;;;;4985634;28;20041;-70
2024/01/13 11:07:16;;;;;;;49.58;21.20;;;;;;;;;;4986049;28;20030;-70
2024/01/13 11:09:42;;;;;;;54.88;23.33;;;;;;;;;;4968591;28;20050;-69
2024/01/13 11:12:17;;;;;;;48.50;21.27;;;;;;;;;;4985730;28;20779;-68
2024/01/13 11:15:12;;;;;;;44.90;19.85;;;;;;;;;;4983720;28;20025;-69
2024/01/13 11:17:39;;;;;;;51.67;20.00;;;;;;;;;;4977325;28;20042;-69
2024/01/13 11:20:04;;;;;;;54.65;22.80;;;;;;;;;;4986343;28;20460;-69
2024/01/13 11:22:31;;;;;;;52.40;22.52;;;;;;;;;;4968042;28;20053;-69
2024/01/13 11:24:57;;;;;;;51.15;20.85;;;;;;;;;;4988118;28;20022;-69
2024/01/13 11:27:22;;;;;;;52.63;21.65;;;;;;;;;;4968359;28;20058;-70
2024/01/13 11:29:48;;;;;;;46.90;21.48;;;;;;;;;;4986449;28;20077;-70
2024/01/13 11:32:13;;;;;;;48.22;21.67;;;;;;;;;;4986918;28;20025;-71
2024/01/13 11:34:39;;;;;;;50.30;20.60;;;;;;;;;;4987038;28;20080;-71
2024/01/13 11:37:04;;;;;;;49.80;21.20;;;;;;;;;;4986040;28;20022;-70
2024/01/13 11:39:30;;;;;;;49.55;21.23;;;;;;;;;;4988047;28;20028;-69
2024/01/13 11:41:55;;;;;;;56.83;24.30;;;;;;;;;;4987379;28;20061;-70
2024/01/13 11:44:30;;;;;;;52.65;21.95;;;;;;;;;;4978775;28;20034;-70
2024/01/13 11:46:56;;;;;;;50.15;21.40;;;;;;;;;;4985229;28;20030;-69
2024/01/13 11:49:34;;;;;;;52.42;21.38;;;;;;;;;;4984463;28;20393;-69
2024/01/13 11:51:59;;;;;;;54.38;20.80;;;;;;;;;;4984601;28;20030;-68
2024/01/13 11:54:25;;;;;;;51.58;21.75;;;;;;;;;;4977630;28;20288;-69
2024/01/13 11:56:50;;;;;;;52.78;21.77;;;;;;;;;;4981388;28;20480;-69
2024/01/13 11:59:16;;;;;;;51.08;21.38;;;;;;;;;;4961955;28;20034;-68
2024/01/13 12:01:42;;;;;;;49.55;22.30;;;;;;;;;;4979023;28;20022;-69
2024/01/13 12:04:08;;;;;;;54.50;21.52;;;;;;;;;;4986846;28;20084;-68
2024/01/13 12:06:34;;;;;;;57.30;25.23;;;;;;;;;;4964949;28;20038;-69
2024/01/13 12:08:59;;;;;;;56.65;23.13;;;;;;;;;;4981135;28;20088;-69
2024/01/13 12:11:24;;;;;;;54.23;22.00;;;;;;;;;;4986272;28;20073;-69
2024/01/13 12:13:53;;;;;;;57.42;24.88;;;;;;;;;;4964863;28;20288;-69
2024/01/13 12:16:18;;;;;;;56.40;25.13;;;;;;;;;;4979553;28;20018;-69
2024/01/13 12:18:47;;;;;;;53.08;23.88;;;;;;;;;;4963974;28;20522;-68
2024/01/13 12:21:13;;;;;;;52.47;23.20;;;;;;;;;;4979924;28;20073;-68
2024/01/13 12:23:38;;;;;;;53.67;24.75;;;;;;;;;;4965285;28;20065;-68
2024/01/13 12:26:04;;;;;;;59.25;24.70;;;;;;;;;;4978135;28;20117;-67
2024/01/13 12:28:29;;;;;;;57.33;24.85;;;;;;;;;;4980998;28;20034;-68
2024/01/13 12:30:54;;;;;;;66.22;25.10;;;;;;;;;;4981278;28;20154;-68
2024/01/13 12:33:25;;;;;;;63.17;23.67;;;;;;;;;;4980528;28;20084;-69
2024/01/13 12:35:57;;;;;;;58.83;24.48;;;;;;;;;;4979484;28;20169;-70
2024/01/13 12:38:23;;;;;;;53.47;24.75;;;;;;;;;;4980385;28;20080;-68
2024/01/13 12:40:48;;;;;;;63.40;26.48;;;;;;;;;;4979046;28;20118;-68
2024/01/13 12:43:16;;;;;;;62.80;26.92;;;;;;;;;;4969168;28;20141;-68
2024/01/13 12:45:42;;;;;;;68.55;26.98;;;;;;;;;;4965794;28;20089;-69
2024/01/13 12:48:08;;;;;;;63.40;26.93;;;;;;;;;;4982106;28;20030;-69
2024/01/13 12:50:33;;;;;;;58.60;25.88;;;;;;;;;;4978680;28;20352;-69
2024/01/13 12:52:59;;;;;;;53.70;25.08;;;;;;;;;;4981466;28;20133;-69
2024/01/13 12:55:24;;;;;;;62.25;25.23;;;;;;;;;;4973606;28;20030;-69
2024/01/13 12:57:49;;;;;;;57.33;24.42;;;;;;;;;;4967067;28;20030;-69
2024/01/13 13:00:15;;;;;;;56.05;25.48;;;;;;;;;;4986977;28;20053;-69
2024/01/13 13:02:40;;;;;;;54.65;22.67;;;;;;;;;;4969453;28;20038;-68
2024/01/13 13:05:05;;;;;;;49.47;21.65;;;;;;;;;;4979734;28;20041;-68
2024/01/13 13:07:31;;;;;;;50.55;21.52;;;;;;;;;;4980129;28;20037;-69
2024/01/13 13:09:57;;;;;;;52.22;21.40;;;;;;;;;;4971427;28;20093;-69
2024/01/13 13:12:22;;;;;;;50.05;20.85;;;;;;;;;;4990712;28;20085;-68
2024/01/13 13:14:48;;;;;;;62.90;26.60;;;;;;;;;;4986648;28;20033;-68
2024/01/13 13:17:13;;;;;;;63.70;26.15;;;;;;;;;;4986504;28;20464;-69
2024/01/13 13:19:39;;;;;;;54.08;24.08;;;;;;;;;;4989677;28;20550;-69
2024/01/13 13:22:04;;;;;;;58.47;23.15;;;;;;;;;;4989541;28;20092;-69
2024/01/13 13:24:29;;;;;;;53.70;23.45;;;;;;;;;;4989074;28;20030;-69
2024/01/13 13:26:55;;;;;;;70.57;27.02;;;;;;;;;;4986271;28;20046;-67
2024/01/13 13:29:20;;;;;;;58.30;24.27;;;;;;;;;;4970917;28;20054;-68
2024/01/13 13:31:46;;;;;;;55.57;23.40;;;;;;;;;;4986124;28;20034;-67
2024/01/13 13:34:11;;;;;;;97.85;32.33;;;;;;;;;;4987656;28;20269;-69
2024/01/13 13:36:37;;;;;;;74.30;27.97;;;;;;;;;;4987838;28;20327;-67
2024/01/13 13:39:05;;;;;;;75.03;27.10;;;;;;;;;;4986059;28;20368;-69
2024/01/13 13:41:30;;;;;;;79.07;28.42;;;;;;;;;;4970599;28;20033;-69
2024/01/13 13:43:55;;;;;;;80.25;25.67;;;;;;;;;;4987357;28;20038;-69
2024/01/13 13:46:21;;;;;;;62.85;24.40;;;;;;;;;;4986699;28;20027;-67
2024/01/13 13:48:46;;;;;;;57.37;23.70;;;;;;;;;;4984653;28;20409;-68
2024/01/13 13:51:12;;;;;;;49.43;21.93;;;;;;;;;;4984665;28;20364;-68
2024/01/13 13:53:37;;;;;;;50.75;21.67;;;;;;;;;;4985722;28;20374;-67
2024/01/13 13:56:03;;;;;;;50.45;21.67;;;;;;;;;;4985873;28;20114;-68
2024/01/13 13:58:28;;;;;;;48.58;20.60;;;;;;;;;;4981886;28;20369;-68
2024/01/13 14:00:56;;;;;;;48.42;21.48;;;;;;;;;;4967185;28;20034;-69
2024/01/13 14:03:22;;;;;;;56.50;22.50;;;;;;;;;;4982979;28;20117;-69